sensor_id;sensor_type;location;lat;lon;timestamp;P1;durP1;ratioP1;P2;durP2;ratioP2
20669;SDS011;10494;50.868;4.180;2024-01-15T00:01:28;30.90;;;10.13;;
20669;SDS011;10494;50.868;4.180;2024-01-15T00:03:54;26.90;;;10.43;;
20669;SDS011;10494;50.868;4.180;2024-01-15T00:06:20;27.53;;;11.00;;
20669;SDS011;10494;50.868;4.180;2024-01-15T00:08:45;26.77;;;10.10;;
20669;SDS011;10494;50.868;4.180;2024-01-15T00:11:11;21.37;;;9.30;;
20669;SDS011;10494;50.868;4.180;2024-01-15T00:13:37;28.57;;;10.10;;
20669;SDS011;10494;50.868;4.180;2024-01-15T00:16:03;21.93;;;9.43;;
20669;SDS011;10494;50.868;4.180;2024-01-15T00:18:29;20.50;;;8.93;;
20669;SDS011;10494;50.868;4.180;2024-01-15T00:20:55;17.93;;;8.27;;
20669;SDS011;10494;50.868;4.180;2024-01-15T00:23:20;22.93;;;8.30;;
20669;SDS011;10494;50.868;4.180;2024-01-15T00:25:46;22.77;;;8.70;;
20669;SDS011;10494;50.868;4.180;2024-01-15T00:28:11;18.30;;;7.57;;
20669;SDS011;10494;50.868;4.180;2024-01-15T00:30:37;20.63;;;8.40;;
20669;SDS011;10494;50.868;4.180;2024-01-15T00:33:03;15.27;;;6.50;;
20669;SDS011;10494;50.868;4.180;2024-01-15T00:35:28;19.57;;;7.00;;
20669;SDS011;10494;50.868;4.180;2024-01-15T00:37:54;16.23;;;6.43;;
20669;SDS011;10494;50.868;4.180;2024-01-15T00:40:20;14.17;;;6.10;;
20669;SDS011;10494;50.868;4.180;2024-01-15T00:42:45;15.20;;;6.50;;
20669;SDS011;10494;50.868;4.180;2024-01-15T00:45:11;10.40;;;5.77;;
20669;SDS011;10494;50.868;4.180;2024-01-15T00:47:36;15.40;;;7.10;;
20669;SDS011;10494;50.868;4.180;2024-01-15T00:50:02;14.87;;;6.17;;
20669;SDS011;10494;50.868;4.180;2024-01-15T00:52:28;13.30;;;5.33;;
20669;SDS011;10494;50.868;4.180;2024-01-15T00:54:53;9.03;;;5.07;;
20669;SDS011;10494;50.868;4.180;2024-01-15T00:57:19;11.70;;;5.13;;
20669;SDS011;10494;50.868;4.180;2024-01-15T00:59:45;10.63;;;4.80;;
20669;SDS011;10494;50.868;4.180;2024-01-15T01:02:10;9.50;;;4.27;;
20669;SDS011;10494;50.868;4.180;2024-01-15T01:04:36;15.10;;;4.67;;
20669;SDS011;10494;50.868;4.180;2024-01-15T01:07:01;7.00;;;3.80;;
20669;SDS011;10494;50.868;4.180;2024-01-15T01:09:27;8.47;;;3.50;;
20669;SDS011;10494;50.868;4.180;2024-01-15T01:11:55;8.20;;;4.03;;
20669;SDS011;10494;50.868;4.180;2024-01-15T01:14:21;9.53;;;4.50;;
20669;SDS011;10494;50.868;4.180;2024-01-15T01:16:46;6.30;;;3.00;;
20669;SDS011;10494;50.868;4.180;2024-01-15T01:19:12;7.73;;;3.47;;
20669;SDS011;10494;50.868;4.180;2024-01-15T01:21:38;4.80;;;3.30;;
20669;SDS011;10494;50.868;4.180;2024-01-15T01:24:03;8.63;;;3.47;;
20669;SDS011;10494;50.868;4.180;2024-01-15T01:26:29;6.50;;;3.50;;
20669;SDS011;10494;50.868;4.180;2024-01-15T01:28:55;7.17;;;3.00;;
20669;SDS011;10494;50.868;4.180;2024-01-15T01:31:21;4.77;;;3.20;;
20669;SDS011;10494;50.868;4.180;2024-01-15T01:33:46;4.67;;;3.03;;
20669;SDS011;10494;50.868;4.180;2024-01-15T01:36:12;5.73;;;3.27;;
20669;SDS011;10494;50.868;4.180;2024-01-15T01:38:39;6.47;;;3.03;;
20669;SDS011;10494;50.868;4.180;2024-01-15T01:41:05;5.23;;;2.77;;
20669;SDS011;10494;50.868;4.180;2024-01-15T01:43:31;6.43;;;2.80;;
20669;SDS011;10494;50.868;4.180;2024-01-15T01:45:57;7.13;;;2.57;;
20669;SDS011;10494;50.868;4.180;2024-01-15T01:48:25;3.87;;;2.53;;
20669;SDS011;10494;50.868;4.180;2024-01-15T01:50:52;3.77;;;2.73;;
20669;SDS011;10494;50.868;4.180;2024-01-15T01:53:19;9.67;;;2.80;;
20669;SDS011;10494;50.868;4.180;2024-01-15T01:55:45;4.87;;;2.13;;
20669;SDS011;10494;50.868;4.180;2024-01-15T01:58:13;4.17;;;2.10;;
20669;SDS011;10494;50.868;4.180;2024-01-15T02:00:38;4.37;;;2.30;;
20669;SDS011;10494;50.868;4.180;2024-01-15T02:03:04;4.13;;;2.27;;
20669;SDS011;10494;50.868;4.180;2024-01-15T02:05:30;3.53;;;2.00;;
20669;SDS011;10494;50.868;4.180;2024-01-15T02:07:56;5.03;;;2.40;;
20669;SDS011;10494;50.868;4.180;2024-01-15T02:10:21;4.23;;;1.80;;
20669;SDS011;10494;50.868;4.180;2024-01-15T02:12:47;3.10;;;2.03;;
20669;SDS011;10494;50.868;4.180;2024-01-15T02:15:13;3.00;;;2.20;;
20669;SDS011;10494;50.868;4.180;2024-01-15T02:20:35;5.23;;;2.40;;
20669;SDS011;10494;50.868;4.180;2024-01-15T02:23:03;2.77;;;1.97;;
20669;SDS011;10494;50.868;4.180;2024-01-15T02:25:36;6.30;;;2.50;;
20669;SDS011;10494;50.868;4.180;2024-01-15T02:28:03;3.97;;;2.47;;
20669;SDS011;10494;50.868;4.180;2024-01-15T02:30:30;4.70;;;2.90;;
20669;SDS011;10494;50.868;4.180;2024-01-15T02:32:56;5.33;;;2.23;;
20669;SDS011;10494;50.868;4.180;2024-01-15T02:35:22;5.60;;;2.47;;
20669;SDS011;10494;50.868;4.180;2024-01-15T02:37:47;3.97;;;2.40;;
20669;SDS011;10494;50.868;4.180;2024-01-15T02:40:13;7.17;;;2.87;;
20669;SDS011;10494;50.868;4.180;2024-01-15T02:42:38;9.93;;;3.43;;
20669;SDS011;10494;50.868;4.180;2024-01-15T02:45:04;7.90;;;2.80;;
20669;SDS011;10494;50.868;4.180;2024-01-15T02:47:30;4.77;;;3.10;;
20669;SDS011;10494;50.868;4.180;2024-01-15T02:49:55;8.27;;;3.77;;
20669;SDS011;10494;50.868;4.180;2024-01-15T02:52:21;8.10;;;3.80;;
20669;SDS011;10494;50.868;4.180;2024-01-15T02:54:46;6.70;;;3.83;;
20669;SDS011;10494;50.868;4.180;2024-01-15T02:57:12;6.90;;;3.60;;
20669;SDS011;10494;50.868;4.180;2024-01-15T02:59:38;8.63;;;4.40;;
20669;SDS011;10494;50.868;4.180;2024-01-15T03:02:03;8.07;;;3.97;;
20669;SDS011;10494;50.868;4.180;2024-01-15T03:04:29;8.03;;;3.73;;
20669;SDS011;10494;50.868;4.180;2024-01-15T03:06:54;8.80;;;3.87;;
20669;SDS011;10494;50.868;4.180;2024-01-15T03:09:20;13.63;;;4.70;;
20669;SDS011;10494;50.868;4.180;2024-01-15T03:11:46;7.57;;;4.07;;
20669;SDS011;10494;50.868;4.180;2024-01-15T03:14:11;12.53;;;4.57;;
20669;SDS011;10494;50.868;4.180;2024-01-15T03:16:37;8.70;;;4.40;;
20669;SDS011;10494;50.868;4.180;2024-01-15T03:19:02;10.03;;;4.50;;
20669;SDS011;10494;50.868;4.180;2024-01-15T03:21:28;8.60;;;4.70;;
20669;SDS011;10494;50.868;4.180;2024-01-15T03:23:54;7.50;;;4.07;;
20669;SDS011;10494;50.868;4.180;2024-01-15T03:26:19;8.63;;;4.13;;
20669;SDS011;10494;50.868;4.180;2024-01-15T03:28:45;8.47;;;4.50;;
20669;SDS011;10494;50.868;4.180;2024-01-15T03:31:10;7.03;;;4.00;;
20669;SDS011;10494;50.868;4.180;2024-01-15T03:33:36;9.50;;;5.80;;
20669;SDS011;10494;50.868;4.180;2024-01-15T03:36:01;9.60;;;5.03;;
20669;SDS011;10494;50.868;4.180;2024-01-15T03:38:28;9.17;;;5.10;;
20669;SDS011;10494;50.868;4.180;2024-01-15T03:40:53;9.53;;;5.10;;
20669;SDS011;10494;50.868;4.180;2024-01-15T03:43:20;8.93;;;5.00;;
20669;SDS011;10494;50.868;4.180;2024-01-15T03:45:46;11.10;;;5.30;;
20669;SDS011;10494;50.868;4.180;2024-01-15T03:48:11;10.70;;;5.13;;
20669;SDS011;10494;50.868;4.180;2024-01-15T03:50:37;11.77;;;4.80;;
20669;SDS011;10494;50.868;4.180;2024-01-15T03:53:02;11.80;;;5.70;;
20669;SDS011;10494;50.868;4.180;2024-01-15T03:55:28;11.67;;;5.97;;
20669;SDS011;10494;50.868;4.180;2024-01-15T03:57:54;11.67;;;5.93;;
20669;SDS011;10494;50.868;4.180;2024-01-15T04:00:19;13.23;;;5.90;;
20669;SDS011;10494;50.868;4.180;2024-01-15T04:02:45;14.33;;;6.77;;
20669;SDS011;10494;50.868;4.180;2024-01-15T04:05:11;16.27;;;6.57;;
20669;SDS011;10494;50.868;4.180;2024-01-15T04:07:36;15.00;;;6.57;;
20669;SDS011;10494;50.868;4.180;2024-01-15T04:10:02;15.73;;;6.83;;
20669;SDS011;10494;50.868;4.180;2024-01-15T04:12:28;12.77;;;6.27;;
20669;SDS011;10494;50.868;4.180;2024-01-15T04:14:53;12.57;;;6.73;;
20669;SDS011;10494;50.868;4.180;2024-01-15T04:17:19;18.70;;;6.37;;
20669;SDS011;10494;50.868;4.180;2024-01-15T04:19:46;10.33;;;6.37;;
20669;SDS011;10494;50.868;4.180;2024-01-15T04:22:13;11.53;;;5.53;;
20669;SDS011;10494;50.868;4.180;2024-01-15T04:24:38;12.60;;;5.83;;
20669;SDS011;10494;50.868;4.180;2024-01-15T04:27:05;14.03;;;5.70;;
20669;SDS011;10494;50.868;4.180;2024-01-15T04:29:31;8.73;;;4.93;;
20669;SDS011;10494;50.868;4.180;2024-01-15T04:31:56;8.93;;;5.17;;
20669;SDS011;10494;50.868;4.180;2024-01-15T04:34:22;11.17;;;4.60;;
20669;SDS011;10494;50.868;4.180;2024-01-15T04:36:48;6.40;;;3.90;;
20669;SDS011;10494;50.868;4.180;2024-01-15T04:39:13;6.73;;;4.07;;
20669;SDS011;10494;50.868;4.180;2024-01-15T04:41:39;8.77;;;3.60;;
20669;SDS011;10494;50.868;4.180;2024-01-15T04:44:04;8.20;;;3.30;;
20669;SDS011;10494;50.868;4.180;2024-01-15T04:46:30;4.80;;;3.13;;
20669;SDS011;10494;50.868;4.180;2024-01-15T04:48:55;5.20;;;2.70;;
20669;SDS011;10494;50.868;4.180;2024-01-15T04:51:21;10.10;;;3.00;;
20669;SDS011;10494;50.868;4.180;2024-01-15T04:53:47;3.93;;;1.77;;
20669;SDS011;10494;50.868;4.180;2024-01-15T04:56:12;3.83;;;2.23;;
20669;SDS011;10494;50.868;4.180;2024-01-15T04:58:38;4.33;;;1.60;;
20669;SDS011;10494;50.868;4.180;2024-01-15T05:01:03;2.23;;;1.40;;
20669;SDS011;10494;50.868;4.180;2024-01-15T05:03:29;7.33;;;1.57;;
20669;SDS011;10494;50.868;4.180;2024-01-15T05:05:54;7.67;;;1.60;;
20669;SDS011;10494;50.868;4.180;2024-01-15T05:08:20;5.03;;;1.90;;
20669;SDS011;10494;50.868;4.180;2024-01-15T05:10:46;4.67;;;1.63;;
20669;SDS011;10494;50.868;4.180;2024-01-15T05:13:12;9.90;;;2.07;;
20669;SDS011;10494;50.868;4.180;2024-01-15T05:15:38;9.03;;;1.70;;
20669;SDS011;10494;50.868;4.180;2024-01-15T05:18:04;6.67;;;1.97;;
20669;SDS011;10494;50.868;4.180;2024-01-15T05:20:29;5.10;;;1.63;;
20669;SDS011;10494;50.868;4.180;2024-01-15T05:22:56;4.20;;;1.90;;
20669;SDS011;10494;50.868;4.180;2024-01-15T05:25:21;3.43;;;1.40;;
20669;SDS011;10494;50.868;4.180;2024-01-15T05:27:47;2.20;;;1.40;;
20669;SDS011;10494;50.868;4.180;2024-01-15T05:30:13;3.80;;;1.60;;
20669;SDS011;10494;50.868;4.180;2024-01-15T05:32:39;5.07;;;1.27;;
20669;SDS011;10494;50.868;4.180;2024-01-15T05:35:05;1.37;;;0.90;;
20669;SDS011;10494;50.868;4.180;2024-01-15T05:37:31;1.53;;;0.93;;
20669;SDS011;10494;50.868;4.180;2024-01-15T05:39:56;12.07;;;1.30;;
20669;SDS011;10494;50.868;4.180;2024-01-15T05:42:22;2.77;;;1.13;;
20669;SDS011;10494;50.868;4.180;2024-01-15T05:44:47;3.70;;;1.17;;
20669;SDS011;10494;50.868;4.180;2024-01-15T05:47:13;4.00;;;1.00;;
20669;SDS011;10494;50.868;4.180;2024-01-15T05:49:39;3.00;;;1.00;;
20669;SDS011;10494;50.868;4.180;2024-01-15T05:52:04;2.67;;;1.13;;
20669;SDS011;10494;50.868;4.180;2024-01-15T05:54:30;4.63;;;1.40;;
20669;SDS011;10494;50.868;4.180;2024-01-15T05:56:55;3.47;;;1.37;;
20669;SDS011;10494;50.868;4.180;2024-01-15T05:59:21;3.03;;;1.17;;
20669;SDS011;10494;50.868;4.180;2024-01-15T06:01:46;5.10;;;1.40;;
20669;SDS011;10494;50.868;4.180;2024-01-15T06:04:12;5.13;;;1.17;;
20669;SDS011;10494;50.868;4.180;2024-01-15T06:06:38;3.90;;;1.10;;
20669;SDS011;10494;50.868;4.180;2024-01-15T06:09:03;6.67;;;1.33;;
20669;SDS011;10494;50.868;4.180;2024-01-15T06:11:32;7.60;;;1.50;;
20669;SDS011;10494;50.868;4.180;2024-01-15T06:13:58;2.93;;;1.47;;
20669;SDS011;10494;50.868;4.180;2024-01-15T06:16:24;4.40;;;1.50;;
20669;SDS011;10494;50.868;4.180;2024-01-15T06:18:49;3.83;;;1.60;;
20669;SDS011;10494;50.868;4.180;2024-01-15T06:21:15;2.77;;;1.50;;
20669;SDS011;10494;50.868;4.180;2024-01-15T06:23:41;6.87;;;1.57;;
20669;SDS011;10494;50.868;4.180;2024-01-15T06:26:07;2.13;;;1.40;;
20669;SDS011;10494;50.868;4.180;2024-01-15T06:28:33;4.90;;;1.70;;
20669;SDS011;10494;50.868;4.180;2024-01-15T06:30:58;8.07;;;1.43;;
20669;SDS011;10494;50.868;4.180;2024-01-15T06:33:24;9.67;;;2.13;;
20669;SDS011;10494;50.868;4.180;2024-01-15T06:35:50;10.63;;;2.40;;
20669;SDS011;10494;50.868;4.180;2024-01-15T06:38:16;8.37;;;1.80;;
20669;SDS011;10494;50.868;4.180;2024-01-15T06:40:41;14.43;;;3.27;;
20669;SDS011;10494;50.868;4.180;2024-01-15T06:43:10;20.13;;;2.93;;
20669;SDS011;10494;50.868;4.180;2024-01-15T06:45:37;16.07;;;2.80;;
20669;SDS011;10494;50.868;4.180;2024-01-15T06:48:03;13.07;;;2.80;;
20669;SDS011;10494;50.868;4.180;2024-01-15T06:50:29;20.00;;;3.77;;
20669;SDS011;10494;50.868;4.180;2024-01-15T06:52:54;14.87;;;3.00;;
20669;SDS011;10494;50.868;4.180;2024-01-15T06:55:20;23.80;;;3.47;;
20669;SDS011;10494;50.868;4.180;2024-01-15T06:57:47;6.47;;;1.80;;
20669;SDS011;10494;50.868;4.180;2024-01-15T07:00:13;3.53;;;1.70;;
20669;SDS011;10494;50.868;4.180;2024-01-15T07:02:39;6.77;;;2.10;;
20669;SDS011;10494;50.868;4.180;2024-01-15T07:05:04;6.50;;;1.87;;
20669;SDS011;10494;50.868;4.180;2024-01-15T07:07:30;7.50;;;1.83;;
20669;SDS011;10494;50.868;4.180;2024-01-15T07:09:56;9.27;;;2.47;;
20669;SDS011;10494;50.868;4.180;2024-01-15T07:12:22;5.90;;;1.60;;
20669;SDS011;10494;50.868;4.180;2024-01-15T07:14:48;3.93;;;1.83;;
20669;SDS011;10494;50.868;4.180;2024-01-15T07:17:14;5.03;;;2.03;;
20669;SDS011;10494;50.868;4.180;2024-01-15T07:19:39;4.93;;;2.43;;
20669;SDS011;10494;50.868;4.180;2024-01-15T07:22:05;5.50;;;2.90;;
20669;SDS011;10494;50.868;4.180;2024-01-15T07:24:31;14.50;;;2.73;;
20669;SDS011;10494;50.868;4.180;2024-01-15T07:26:59;6.23;;;2.70;;
20669;SDS011;10494;50.868;4.180;2024-01-15T07:29:24;6.33;;;3.13;;
20669;SDS011;10494;50.868;4.180;2024-01-15T07:31:50;6.63;;;3.00;;
20669;SDS011;10494;50.868;4.180;2024-01-15T07:34:16;9.33;;;3.40;;
20669;SDS011;10494;50.868;4.180;2024-01-15T07:36:45;8.13;;;3.60;;
20669;SDS011;10494;50.868;4.180;2024-01-15T07:39:11;7.10;;;3.80;;
20669;SDS011;10494;50.868;4.180;2024-01-15T07:41:36;9.73;;;3.80;;
20669;SDS011;10494;50.868;4.180;2024-01-15T07:44:02;10.30;;;3.63;;
20669;SDS011;10494;50.868;4.180;2024-01-15T07:46:29;6.57;;;3.30;;
20669;SDS011;10494;50.868;4.180;2024-01-15T07:48:55;8.87;;;4.30;;
20669;SDS011;10494;50.868;4.180;2024-01-15T07:51:22;9.27;;;4.03;;
20669;SDS011;10494;50.868;4.180;2024-01-15T07:53:49;10.10;;;3.80;;
20669;SDS011;10494;50.868;4.180;2024-01-15T07:56:14;6.97;;;3.93;;
20669;SDS011;10494;50.868;4.180;2024-01-15T07:58:41;10.37;;;3.73;;
20669;SDS011;10494;50.868;4.180;2024-01-15T08:01:06;6.53;;;3.57;;
20669;SDS011;10494;50.868;4.180;2024-01-15T08:03:32;14.33;;;3.43;;
20669;SDS011;10494;50.868;4.180;2024-01-15T08:05:58;6.73;;;3.37;;
20669;SDS011;10494;50.868;4.180;2024-01-15T08:08:24;10.33;;;3.00;;
20669;SDS011;10494;50.868;4.180;2024-01-15T08:10:52;10.00;;;3.10;;
20669;SDS011;10494;50.868;4.180;2024-01-15T08:13:18;5.70;;;3.03;;
20669;SDS011;10494;50.868;4.180;2024-01-15T08:15:43;11.87;;;3.40;;
20669;SDS011;10494;50.868;4.180;2024-01-15T08:18:09;5.37;;;2.00;;
20669;SDS011;10494;50.868;4.180;2024-01-15T08:20:34;7.77;;;2.03;;
20669;SDS011;10494;50.868;4.180;2024-01-15T08:23:00;5.83;;;2.43;;
20669;SDS011;10494;50.868;4.180;2024-01-15T08:25:26;14.73;;;2.50;;
20669;SDS011;10494;50.868;4.180;2024-01-15T08:27:52;6.67;;;1.60;;
20669;SDS011;10494;50.868;4.180;2024-01-15T08:30:17;12.37;;;1.83;;
20669;SDS011;10494;50.868;4.180;2024-01-15T08:32:44;6.90;;;2.00;;
20669;SDS011;10494;50.868;4.180;2024-01-15T08:35:10;6.50;;;1.87;;
20669;SDS011;10494;50.868;4.180;2024-01-15T08:37:36;6.53;;;2.00;;
20669;SDS011;10494;50.868;4.180;2024-01-15T08:40:03;5.07;;;1.87;;
20669;SDS011;10494;50.868;4.180;2024-01-15T08:42:29;5.37;;;1.67;;
20669;SDS011;10494;50.868;4.180;2024-01-15T08:44:54;8.37;;;2.60;;
20669;SDS011;10494;50.868;4.180;2024-01-15T08:47:20;5.03;;;2.23;;
20669;SDS011;10494;50.868;4.180;2024-01-15T08:49:46;7.60;;;1.57;;
20669;SDS011;10494;50.868;4.180;2024-01-15T08:52:11;4.07;;;1.67;;
20669;SDS011;10494;50.868;4.180;2024-01-15T08:54:38;4.57;;;1.83;;
20669;SDS011;10494;50.868;4.180;2024-01-15T08:57:04;4.43;;;1.93;;
20669;SDS011;10494;50.868;4.180;2024-01-15T08:59:30;9.03;;;2.73;;
20669;SDS011;10494;50.868;4.180;2024-01-15T09:01:55;7.00;;;1.80;;
20669;SDS011;10494;50.868;4.180;2024-01-15T09:04:24;7.87;;;1.90;;
20669;SDS011;10494;50.868;4.180;2024-01-15T09:06:50;8.63;;;2.00;;
20669;SDS011;10494;50.868;4.180;2024-01-15T09:09:16;15.30;;;2.27;;
20669;SDS011;10494;50.868;4.180;2024-01-15T09:11:41;10.20;;;2.33;;
20669;SDS011;10494;50.868;4.180;2024-01-15T09:14:07;7.70;;;1.97;;
20669;SDS011;10494;50.868;4.180;2024-01-15T09:16:33;3.73;;;1.50;;
20669;SDS011;10494;50.868;4.180;2024-01-15T09:18:59;7.93;;;1.30;;
20669;SDS011;10494;50.868;4.180;2024-01-15T09:21:25;2.03;;;1.00;;
20669;SDS011;10494;50.868;4.180;2024-01-15T09:23:50;6.93;;;1.50;;
20669;SDS011;10494;50.868;4.180;2024-01-15T09:26:16;4.97;;;1.50;;
20669;SDS011;10494;50.868;4.180;2024-01-15T09:28:42;7.80;;;1.87;;
20669;SDS011;10494;50.868;4.180;2024-01-15T09:31:08;14.13;;;1.70;;
20669;SDS011;10494;50.868;4.180;2024-01-15T09:33:34;5.50;;;1.67;;
20669;SDS011;10494;50.868;4.180;2024-01-15T09:36:02;4.57;;;1.60;;
20669;SDS011;10494;50.868;4.180;2024-01-15T09:38:29;6.25;;;1.85;;
20669;SDS011;10494;50.868;4.180;2024-01-15T09:40:56;6.55;;;1.58;;
20669;SDS011;10494;50.868;4.180;2024-01-15T09:43:22;5.15;;;1.75;;
20669;SDS011;10494;50.868;4.180;2024-01-15T09:45:48;4.85;;;1.40;;
20669;SDS011;10494;50.868;4.180;2024-01-15T09:48:15;7.93;;;1.92;;
20669;SDS011;10494;50.868;4.180;2024-01-15T09:50:41;10.13;;;2.08;;
20669;SDS011;10494;50.868;4.180;2024-01-15T09:53:08;8.00;;;1.60;;
20669;SDS011;10494;50.868;4.180;2024-01-15T09:55:35;11.52;;;1.75;;
20669;SDS011;10494;50.868;4.180;2024-01-15T09:58:03;4.07;;;1.30;;
20669;SDS011;10494;50.868;4.180;2024-01-15T10:00:29;5.28;;;1.75;;
20669;SDS011;10494;50.868;4.180;2024-01-15T10:02:57;4.22;;;1.38;;
20669;SDS011;10494;50.868;4.180;2024-01-15T10:05:25;7.85;;;1.90;;
20669;SDS011;10494;50.868;4.180;2024-01-15T10:07:51;6.90;;;1.90;;
20669;SDS011;10494;50.868;4.180;2024-01-15T10:10:19;10.35;;;2.17;;
20669;SDS011;10494;50.868;4.180;2024-01-15T10:12:46;7.53;;;2.90;;
20669;SDS011;10494;50.868;4.180;2024-01-15T10:15:12;18.20;;;6.32;;
20669;SDS011;10494;50.868;4.180;2024-01-15T10:17:38;9.40;;;2.67;;
20669;SDS011;10494;50.868;4.180;2024-01-15T10:20:11;9.73;;;3.50;;
20669;SDS011;10494;50.868;4.180;2024-01-15T10:22:41;5.00;;;2.10;;
20669;SDS011;10494;50.868;4.180;2024-01-15T10:25:11;7.63;;;2.05;;
20669;SDS011;10494;50.868;4.180;2024-01-15T10:27:38;5.13;;;1.60;;
20669;SDS011;10494;50.868;4.180;2024-01-15T10:30:05;3.75;;;1.48;;
20669;SDS011;10494;50.868;4.180;2024-01-15T10:32:31;4.40;;;1.50;;
20669;SDS011;10494;50.868;4.180;2024-01-15T10:34:57;5.10;;;1.75;;
20669;SDS011;10494;50.868;4.180;2024-01-15T10:37:23;6.25;;;1.58;;
20669;SDS011;10494;50.868;4.180;2024-01-15T10:39:50;5.93;;;1.58;;
20669;SDS011;10494;50.868;4.180;2024-01-15T10:42:16;9.13;;;1.45;;
20669;SDS011;10494;50.868;4.180;2024-01-15T10:44:43;2.70;;;1.05;;
20669;SDS011;10494;50.868;4.180;2024-01-15T10:47:11;5.30;;;1.30;;
20669;SDS011;10494;50.868;4.180;2024-01-15T10:49:37;9.52;;;2.30;;
20669;SDS011;10494;50.868;4.180;2024-01-15T10:52:04;9.00;;;3.33;;
20669;SDS011;10494;50.868;4.180;2024-01-15T10:54:30;5.50;;;1.25;;
20669;SDS011;10494;50.868;4.180;2024-01-15T10:56:57;6.03;;;1.27;;
20669;SDS011;10494;50.868;4.180;2024-01-15T10:59:22;11.52;;;1.30;;
20669;SDS011;10494;50.868;4.180;2024-01-15T11:01:51;3.10;;;1.38;;
20669;SDS011;10494;50.868;4.180;2024-01-15T11:04:21;6.03;;;1.58;;
20669;SDS011;10494;50.868;4.180;2024-01-15T11:06:49;4.88;;;1.23;;
20669;SDS011;10494;50.868;4.180;2024-01-15T11:09:18;9.47;;;1.67;;
20669;SDS011;10494;50.868;4.180;2024-01-15T11:11:45;6.03;;;1.20;;
20669;SDS011;10494;50.868;4.180;2024-01-15T11:17:22;10.57;;;1.40;;
20669;SDS011;10494;50.868;4.180;2024-01-15T11:19:48;12.10;;;1.70;;
20669;SDS011;10494;50.868;4.180;2024-01-15T11:25:17;6.07;;;1.57;;
20669;SDS011;10494;50.868;4.180;2024-01-15T11:27:44;4.03;;;1.55;;
20669;SDS011;10494;50.868;4.180;2024-01-15T11:30:17;3.57;;;0.90;;
20669;SDS011;10494;50.868;4.180;2024-01-15T11:32:45;3.10;;;1.17;;
20669;SDS011;10494;50.868;4.180;2024-01-15T11:35:11;7.47;;;1.50;;
20669;SDS011;10494;50.868;4.180;2024-01-15T11:40:19;5.43;;;1.03;;
20669;SDS011;10494;50.868;4.180;2024-01-15T11:42:46;3.37;;;1.50;;
20669;SDS011;10494;50.868;4.180;2024-01-15T11:45:13;9.87;;;1.40;;
20669;SDS011;10494;50.868;4.180;2024-01-15T11:50:31;7.57;;;1.80;;
20669;SDS011;10494;50.868;4.180;2024-01-15T11:53:00;7.87;;;1.73;;
20669;SDS011;10494;50.868;4.180;2024-01-15T11:55:29;4.03;;;1.20;;
20669;SDS011;10494;50.868;4.180;2024-01-15T11:57:59;3.50;;;1.47;;
20669;SDS011;10494;50.868;4.180;2024-01-15T12:00:26;6.63;;;1.33;;
20669;SDS011;10494;50.868;4.180;2024-01-15T12:02:53;3.87;;;1.63;;
20669;SDS011;10494;50.868;4.180;2024-01-15T12:05:19;7.90;;;1.17;;
20669;SDS011;10494;50.868;4.180;2024-01-15T12:07:49;9.20;;;1.47;;
20669;SDS011;10494;50.868;4.180;2024-01-15T12:15:33;4.00;;;1.00;;
20669;SDS011;10494;50.868;4.180;2024-01-15T12:17:59;3.97;;;1.60;;
20669;SDS011;10494;50.868;4.180;2024-01-15T12:20:28;14.27;;;2.40;;
20669;SDS011;10494;50.868;4.180;2024-01-15T12:22:54;14.60;;;3.03;;
20669;SDS011;10494;50.868;4.180;2024-01-15T12:25:20;16.47;;;3.60;;
20669;SDS011;10494;50.868;4.180;2024-01-15T12:27:50;9.87;;;2.07;;
20669;SDS011;10494;50.868;4.180;2024-01-15T12:30:17;9.70;;;1.87;;
20669;SDS011;10494;50.868;4.180;2024-01-15T12:32:43;10.40;;;1.37;;
20669;SDS011;10494;50.868;4.180;2024-01-15T12:35:13;3.00;;;1.10;;
20669;SDS011;10494;50.868;4.180;2024-01-15T12:37:39;7.80;;;1.40;;
20669;SDS011;10494;50.868;4.180;2024-01-15T12:40:05;6.13;;;1.33;;
20669;SDS011;10494;50.868;4.180;2024-01-15T12:42:41;11.00;;;1.73;;
20669;SDS011;10494;50.868;4.180;2024-01-15T12:45:08;6.57;;;1.37;;
20669;SDS011;10494;50.868;4.180;2024-01-15T12:47:35;4.53;;;1.30;;
20669;SDS011;10494;50.868;4.180;2024-01-15T12:50:01;5.67;;;1.10;;
20669;SDS011;10494;50.868;4.180;2024-01-15T12:52:30;4.87;;;1.53;;
20669;SDS011;10494;50.868;4.180;2024-01-15T12:54:57;7.93;;;1.40;;
20669;SDS011;10494;50.868;4.180;2024-01-15T12:57:23;9.23;;;2.03;;
20669;SDS011;10494;50.868;4.180;2024-01-15T12:59:48;8.97;;;1.67;;
20669;SDS011;10494;50.868;4.180;2024-01-15T13:02:15;7.27;;;1.80;;
20669;SDS011;10494;50.868;4.180;2024-01-15T13:04:41;9.43;;;1.77;;
20669;SDS011;10494;50.868;4.180;2024-01-15T13:07:08;7.83;;;1.30;;
20669;SDS011;10494;50.868;4.180;2024-01-15T13:09:34;7.40;;;1.47;;
20669;SDS011;10494;50.868;4.180;2024-01-15T13:12:00;7.10;;;1.20;;
20669;SDS011;10494;50.868;4.180;2024-01-15T13:14:27;4.40;;;1.40;;
20669;SDS011;10494;50.868;4.180;2024-01-15T13:16:53;8.83;;;1.57;;
20669;SDS011;10494;50.868;4.180;2024-01-15T13:19:19;6.33;;;1.43;;
20669;SDS011;10494;50.868;4.180;2024-01-15T13:21:46;6.43;;;1.37;;
20669;SDS011;10494;50.868;4.180;2024-01-15T13:24:11;10.07;;;1.60;;
20669;SDS011;10494;50.868;4.180;2024-01-15T13:26:37;5.07;;;1.40;;
20669;SDS011;10494;50.868;4.180;2024-01-15T13:29:03;4.87;;;1.57;;
20669;SDS011;10494;50.868;4.180;2024-01-15T13:31:29;4.00;;;0.97;;
20669;SDS011;10494;50.868;4.180;2024-01-15T13:33:54;6.07;;;1.50;;
20669;SDS011;10494;50.868;4.180;2024-01-15T13:36:21;10.57;;;1.73;;
20669;SDS011;10494;50.868;4.180;2024-01-15T13:38:50;11.67;;;1.93;;
20669;SDS011;10494;50.868;4.180;2024-01-15T13:41:17;7.03;;;1.33;;
20669;SDS011;10494;50.868;4.180;2024-01-15T13:43:45;7.43;;;1.50;;
20669;SDS011;10494;50.868;4.180;2024-01-15T13:46:11;10.90;;;2.60;;
20669;SDS011;10494;50.868;4.180;2024-01-15T13:48:36;12.93;;;2.13;;
20669;SDS011;10494;50.868;4.180;2024-01-15T13:51:02;8.70;;;1.23;;
20669;SDS011;10494;50.868;4.180;2024-01-15T13:53:28;8.23;;;2.13;;
20669;SDS011;10494;50.868;4.180;2024-01-15T13:55:54;6.87;;;1.43;;
20669;SDS011;10494;50.868;4.180;2024-01-15T13:58:20;11.83;;;2.03;;
20669;SDS011;10494;50.868;4.180;2024-01-15T14:00:46;11.70;;;2.10;;
20669;SDS011;10494;50.868;4.180;2024-01-15T14:03:12;5.70;;;1.53;;
20669;SDS011;10494;50.868;4.180;2024-01-15T14:05:38;5.53;;;1.53;;
20669;SDS011;10494;50.868;4.180;2024-01-15T14:08:03;9.53;;;2.63;;
20669;SDS011;10494;50.868;4.180;2024-01-15T14:10:29;9.03;;;1.87;;
20669;SDS011;10494;50.868;4.180;2024-01-15T14:12:55;9.67;;;1.87;;
20669;SDS011;10494;50.868;4.180;2024-01-15T14:15:20;5.50;;;1.70;;
20669;SDS011;10494;50.868;4.180;2024-01-15T14:17:46;8.20;;;1.63;;
20669;SDS011;10494;50.868;4.180;2024-01-15T14:20:12;7.93;;;1.60;;
20669;SDS011;10494;50.868;4.180;2024-01-15T14:22:38;7.40;;;1.60;;
20669;SDS011;10494;50.868;4.180;2024-01-15T14:25:04;5.73;;;1.37;;
20669;SDS011;10494;50.868;4.180;2024-01-15T14:27:29;8.60;;;1.40;;
20669;SDS011;10494;50.868;4.180;2024-01-15T14:29:55;9.47;;;1.20;;
20669;SDS011;10494;50.868;4.180;2024-01-15T14:32:21;2.90;;;1.30;;
20669;SDS011;10494;50.868;4.180;2024-01-15T14:34:46;4.60;;;1.63;;
20669;SDS011;10494;50.868;4.180;2024-01-15T14:37:13;9.17;;;3.40;;
20669;SDS011;10494;50.868;4.180;2024-01-15T14:39:38;9.30;;;2.63;;
20669;SDS011;10494;50.868;4.180;2024-01-15T14:42:04;12.80;;;2.93;;
20669;SDS011;10494;50.868;4.180;2024-01-15T14:44:29;5.27;;;2.27;;
20669;SDS011;10494;50.868;4.180;2024-01-15T14:46:55;6.47;;;1.10;;
20669;SDS011;10494;50.868;4.180;2024-01-15T14:49:23;4.23;;;1.43;;
20669;SDS011;10494;50.868;4.180;2024-01-15T14:51:49;3.57;;;1.37;;
20669;SDS011;10494;50.868;4.180;2024-01-15T14:54:15;1.90;;;1.10;;
20669;SDS011;10494;50.868;4.180;2024-01-15T14:56:41;2.60;;;1.10;;